Arlington, South Dakota
Current Conditions -  °F | °C
As of 1:30 AM on Monday 22 Dec 2014 (Local Time) from KMDS Reporting Station
Haze Haze  
Wind Chill: -3°   Ceiling: 300
Heat Index:   Visibility: 6mi
Dew Point:   Wind: 15mph
Humidity: 100%   Direction: 180°S
Pressure: 29.48"   Gusts: 21mph
Location:  44.36°N, 97.13°W
Report Text: KMDS 220730Z AUTO 18013G18KT 6SM BR OVC003 02/02 A2948 RMK AO2
Loading
Personal Weather Stations






























Interactive Weather Map New forecast layout! Learn more

10-Day Weather Forecast

Advertisements
Track Severe Weather on mobile